sensor_id;sensor_type;location;lat;lon;timestamp;P1;durP1;ratioP1;P2;durP2;ratioP2
31596;SDS011;18201;50.978;7.034;2023-02-18T00:30:30;15.88;;;12.48;;
31596;SDS011;18201;50.978;7.034;2023-02-18T00:31:04;14.35;;;11.80;;
31596;SDS011;18201;50.978;7.034;2023-02-18T00:31:36;14.20;;;11.68;;
31596;SDS011;18201;50.978;7.034;2023-02-18T00:32:09;14.20;;;12.25;;
31596;SDS011;18201;50.978;7.034;2023-02-18T00:32:40;14.82;;;11.88;;
31596;SDS011;18201;50.978;7.034;2023-02-18T00:33:11;14.40;;;12.90;;
31596;SDS011;18201;50.978;7.034;2023-02-18T00:33:42;17.13;;;12.27;;
31596;SDS011;18201;50.978;7.034;2023-02-18T00:34:14;13.75;;;11.77;;
31596;SDS011;18201;50.978;7.034;2023-02-18T00:34:44;13.40;;;12.00;;
31596;SDS011;18201;50.978;7.034;2023-02-18T00:35:15;13.05;;;11.68;;
31596;SDS011;18201;50.978;7.034;2023-02-18T00:35:46;13.80;;;11.73;;
31596;SDS011;18201;50.978;7.034;2023-02-18T00:36:19;13.25;;;11.48;;
31596;SDS011;18201;50.978;7.034;2023-02-18T00:36:55;13.13;;;11.38;;
31596;SDS011;18201;50.978;7.034;2023-02-18T00:37:27;14.73;;;11.43;;
31596;SDS011;18201;50.978;7.034;2023-02-18T00:37:58;13.55;;;12.18;;
31596;SDS011;18201;50.978;7.034;2023-02-18T00:38:28;12.30;;;10.82;;
31596;SDS011;18201;50.978;7.034;2023-02-18T00:39:00;12.27;;;11.05;;
31596;SDS011;18201;50.978;7.034;2023-02-18T00:39:33;12.77;;;11.25;;
31596;SDS011;18201;50.978;7.034;2023-02-18T00:40:05;13.38;;;11.50;;
31596;SDS011;18201;50.978;7.034;2023-02-18T00:40:37;11.85;;;10.65;;
31596;SDS011;18201;50.978;7.034;2023-02-18T00:41:09;15.93;;;11.52;;
31596;SDS011;18201;50.978;7.034;2023-02-18T00:41:40;13.02;;;11.73;;
31596;SDS011;18201;50.978;7.034;2023-02-18T00:42:11;12.35;;;11.02;;
31596;SDS011;18201;50.978;7.034;2023-02-18T00:42:43;12.88;;;11.63;;
31596;SDS011;18201;50.978;7.034;2023-02-18T00:43:14;12.65;;;11.35;;
31596;SDS011;18201;50.978;7.034;2023-02-18T00:43:46;14.50;;;11.20;;
31596;SDS011;18201;50.978;7.034;2023-02-18T00:44:17;15.27;;;11.57;;
31596;SDS011;18201;50.978;7.034;2023-02-18T00:44:49;12.75;;;11.35;;
31596;SDS011;18201;50.978;7.034;2023-02-18T00:45:21;11.77;;;10.55;;
31596;SDS011;18201;50.978;7.034;2023-02-18T00:45:52;13.48;;;11.23;;
31596;SDS011;18201;50.978;7.034;2023-02-18T00:46:24;15.40;;;11.57;;
31596;SDS011;18201;50.978;7.034;2023-02-18T00:46:56;13.48;;;12.05;;
31596;SDS011;18201;50.978;7.034;2023-02-18T00:47:28;12.73;;;10.85;;
31596;SDS011;18201;50.978;7.034;2023-02-18T00:47:59;11.95;;;10.75;;
31596;SDS011;18201;50.978;7.034;2023-02-18T00:48:30;15.77;;;11.07;;
31596;SDS011;18201;50.978;7.034;2023-02-18T00:49:02;12.73;;;10.60;;
31596;SDS011;18201;50.978;7.034;2023-02-18T00:49:33;14.68;;;11.27;;
31596;SDS011;18201;50.978;7.034;2023-02-18T00:50:06;13.02;;;11.18;;
31596;SDS011;18201;50.978;7.034;2023-02-18T00:50:38;12.95;;;10.93;;
31596;SDS011;18201;50.978;7.034;2023-02-18T00:51:09;13.85;;;11.60;;
31596;SDS011;18201;50.978;7.034;2023-02-18T00:51:41;13.82;;;11.68;;
31596;SDS011;18201;50.978;7.034;2023-02-18T00:52:12;12.77;;;11.35;;
31596;SDS011;18201;50.978;7.034;2023-02-18T00:52:43;12.98;;;11.40;;
31596;SDS011;18201;50.978;7.034;2023-02-18T00:53:16;17.10;;;12.15;;
31596;SDS011;18201;50.978;7.034;2023-02-18T00:53:47;12.50;;;11.20;;
31596;SDS011;18201;50.978;7.034;2023-02-18T00:54:18;11.60;;;10.48;;
31596;SDS011;18201;50.978;7.034;2023-02-18T00:54:49;12.82;;;11.52;;
31596;SDS011;18201;50.978;7.034;2023-02-18T00:55:20;12.18;;;10.82;;
31596;SDS011;18201;50.978;7.034;2023-02-18T00:55:51;12.40;;;10.85;;
31596;SDS011;18201;50.978;7.034;2023-02-18T00:56:22;12.77;;;11.50;;
31596;SDS011;18201;50.978;7.034;2023-02-18T00:56:54;15.63;;;11.32;;
31596;SDS011;18201;50.978;7.034;2023-02-18T00:57:25;11.98;;;10.70;;
31596;SDS011;18201;50.978;7.034;2023-02-18T00:57:56;13.23;;;11.02;;
31596;SDS011;18201;50.978;7.034;2023-02-18T00:58:28;15.35;;;10.65;;
31596;SDS011;18201;50.978;7.034;2023-02-18T00:58:58;15.80;;;11.43;;
31596;SDS011;18201;50.978;7.034;2023-02-18T00:59:29;14.43;;;11.45;;
31596;SDS011;18201;50.978;7.034;2023-02-18T01:00:01;14.35;;;11.45;;
31596;SDS011;18201;50.978;7.034;2023-02-18T01:00:35;13.63;;;10.55;;
31596;SDS011;18201;50.978;7.034;2023-02-18T01:01:07;12.40;;;11.07;;
31596;SDS011;18201;50.978;7.034;2023-02-18T01:01:40;12.75;;;10.80;;
31596;SDS011;18201;50.978;7.034;2023-02-18T01:02:11;11.32;;;10.13;;
31596;SDS011;18201;50.978;7.034;2023-02-18T01:02:42;10.98;;;9.88;;
31596;SDS011;18201;50.978;7.034;2023-02-18T01:03:15;12.82;;;11.10;;
31596;SDS011;18201;50.978;7.034;2023-02-18T01:03:46;12.00;;;10.75;;
31596;SDS011;18201;50.978;7.034;2023-02-18T01:04:17;12.70;;;10.63;;
31596;SDS011;18201;50.978;7.034;2023-02-18T01:04:49;11.45;;;10.07;;
31596;SDS011;18201;50.978;7.034;2023-02-18T01:05:20;12.20;;;10.15;;
31596;SDS011;18201;50.978;7.034;2023-02-18T01:05:51;12.05;;;10.50;;
31596;SDS011;18201;50.978;7.034;2023-02-18T01:06:23;11.15;;;10.00;;
31596;SDS011;18201;50.978;7.034;2023-02-18T01:06:54;11.45;;;10.18;;
31596;SDS011;18201;50.978;7.034;2023-02-18T01:07:25;10.68;;;9.68;;
31596;SDS011;18201;50.978;7.034;2023-02-18T01:07:57;9.73;;;8.65;;
31596;SDS011;18201;50.978;7.034;2023-02-18T01:08:28;12.40;;;10.55;;
31596;SDS011;18201;50.978;7.034;2023-02-18T01:08:59;12.00;;;10.13;;
31596;SDS011;18201;50.978;7.034;2023-02-18T01:09:31;10.18;;;9.23;;
31596;SDS011;18201;50.978;7.034;2023-02-18T01:10:01;11.20;;;10.07;;
31596;SDS011;18201;50.978;7.034;2023-02-18T01:10:33;12.00;;;9.95;;
31596;SDS011;18201;50.978;7.034;2023-02-18T01:11:06;10.82;;;9.73;;
31596;SDS011;18201;50.978;7.034;2023-02-18T01:11:38;11.35;;;9.63;;
31596;SDS011;18201;50.978;7.034;2023-02-18T01:12:10;9.63;;;8.70;;
31596;SDS011;18201;50.978;7.034;2023-02-18T01:12:41;10.30;;;9.30;;
31596;SDS011;18201;50.978;7.034;2023-02-18T01:13:12;11.68;;;9.63;;
31596;SDS011;18201;50.978;7.034;2023-02-18T01:13:44;10.10;;;9.10;;
31596;SDS011;18201;50.978;7.034;2023-02-18T01:14:16;10.50;;;9.23;;
31596;SDS011;18201;50.978;7.034;2023-02-18T01:14:47;12.52;;;9.55;;
31596;SDS011;18201;50.978;7.034;2023-02-18T01:15:17;9.98;;;8.98;;
31596;SDS011;18201;50.978;7.034;2023-02-18T01:15:51;10.35;;;9.38;;
31596;SDS011;18201;50.978;7.034;2023-02-18T01:16:22;10.23;;;8.90;;
31596;SDS011;18201;50.978;7.034;2023-02-18T01:16:53;10.38;;;9.20;;
31596;SDS011;18201;50.978;7.034;2023-02-18T01:17:25;10.13;;;9.00;;
31596;SDS011;18201;50.978;7.034;2023-02-18T01:17:56;10.13;;;8.88;;
31596;SDS011;18201;50.978;7.034;2023-02-18T01:18:27;10.43;;;9.40;;
31596;SDS011;18201;50.978;7.034;2023-02-18T01:18:59;9.73;;;8.57;;
31596;SDS011;18201;50.978;7.034;2023-02-18T01:19:31;9.80;;;8.68;;
31596;SDS011;18201;50.978;7.034;2023-02-18T01:20:02;9.73;;;8.82;;
31596;SDS011;18201;50.978;7.034;2023-02-18T01:20:33;10.02;;;9.07;;
31596;SDS011;18201;50.978;7.034;2023-02-18T01:21:05;10.93;;;8.93;;
31596;SDS011;18201;50.978;7.034;2023-02-18T01:21:37;10.80;;;9.27;;
31596;SDS011;18201;50.978;7.034;2023-02-18T01:22:09;9.45;;;8.13;;
31596;SDS011;18201;50.978;7.034;2023-02-18T01:22:40;9.18;;;8.25;;
31596;SDS011;18201;50.978;7.034;2023-02-18T01:23:11;9.68;;;8.40;;
31596;SDS011;18201;50.978;7.034;2023-02-18T01:23:44;10.02;;;9.10;;
31596;SDS011;18201;50.978;7.034;2023-02-18T01:24:15;9.73;;;8.73;;
31596;SDS011;18201;50.978;7.034;2023-02-18T01:24:46;10.82;;;8.85;;
31596;SDS011;18201;50.978;7.034;2023-02-18T01:25:18;9.45;;;8.48;;
31596;SDS011;18201;50.978;7.034;2023-02-18T01:25:49;9.60;;;8.60;;
31596;SDS011;18201;50.978;7.034;2023-02-18T01:26:20;9.30;;;8.35;;
31596;SDS011;18201;50.978;7.034;2023-02-18T01:26:52;9.30;;;8.15;;
31596;SDS011;18201;50.978;7.034;2023-02-18T01:27:23;9.05;;;8.15;;
31596;SDS011;18201;50.978;7.034;2023-02-18T01:27:53;8.60;;;7.75;;
31596;SDS011;18201;50.978;7.034;2023-02-18T01:28:26;9.07;;;7.90;;
31596;SDS011;18201;50.978;7.034;2023-02-18T01:28:57;9.48;;;7.95;;
31596;SDS011;18201;50.978;7.034;2023-02-18T01:29:27;9.10;;;8.13;;
31596;SDS011;18201;50.978;7.034;2023-02-18T01:29:59;10.10;;;8.10;;
31596;SDS011;18201;50.978;7.034;2023-02-18T01:30:30;8.45;;;7.57;;
31596;SDS011;18201;50.978;7.034;2023-02-18T01:31:05;8.20;;;7.40;;
31596;SDS011;18201;50.978;7.034;2023-02-18T01:31:37;8.93;;;7.55;;
31596;SDS011;18201;50.978;7.034;2023-02-18T01:32:09;8.88;;;7.93;;
31596;SDS011;18201;50.978;7.034;2023-02-18T01:32:39;8.32;;;7.57;;
31596;SDS011;18201;50.978;7.034;2023-02-18T01:33:10;8.18;;;7.38;;
31596;SDS011;18201;50.978;7.034;2023-02-18T01:33:41;8.40;;;7.45;;
31596;SDS011;18201;50.978;7.034;2023-02-18T01:34:13;8.18;;;7.28;;
31596;SDS011;18201;50.978;7.034;2023-02-18T01:34:44;11.57;;;7.30;;
31596;SDS011;18201;50.978;7.034;2023-02-18T01:35:16;9.00;;;8.10;;
31596;SDS011;18201;50.978;7.034;2023-02-18T01:35:48;7.70;;;7.05;;
31596;SDS011;18201;50.978;7.034;2023-02-18T01:36:22;8.45;;;7.40;;
31596;SDS011;18201;50.978;7.034;2023-02-18T01:36:54;7.43;;;6.68;;
31596;SDS011;18201;50.978;7.034;2023-02-18T01:37:25;7.35;;;6.65;;
31596;SDS011;18201;50.978;7.034;2023-02-18T01:37:57;7.70;;;7.00;;
31596;SDS011;18201;50.978;7.034;2023-02-18T01:38:28;8.32;;;7.50;;
31596;SDS011;18201;50.978;7.034;2023-02-18T01:38:59;8.25;;;7.07;;
31596;SDS011;18201;50.978;7.034;2023-02-18T01:39:31;10.82;;;7.45;;
31596;SDS011;18201;50.978;7.034;2023-02-18T01:40:02;7.80;;;7.07;;
31596;SDS011;18201;50.978;7.034;2023-02-18T01:40:34;7.82;;;6.72;;
31596;SDS011;18201;50.978;7.034;2023-02-18T01:41:07;8.27;;;7.55;;
31596;SDS011;18201;50.978;7.034;2023-02-18T01:41:38;7.20;;;6.60;;
31596;SDS011;18201;50.978;7.034;2023-02-18T01:42:13;7.88;;;7.10;;
31596;SDS011;18201;50.978;7.034;2023-02-18T01:42:48;7.43;;;6.80;;
31596;SDS011;18201;50.978;7.034;2023-02-18T01:43:20;10.07;;;7.88;;
31596;SDS011;18201;50.978;7.034;2023-02-18T01:44:42;8.73;;;7.72;;
31596;SDS011;18201;50.978;7.034;2023-02-18T01:46:14;8.82;;;7.60;;
31596;SDS011;18201;50.978;7.034;2023-02-18T01:46:48;9.20;;;7.70;;
31596;SDS011;18201;50.978;7.034;2023-02-18T01:47:20;8.35;;;7.55;;
31596;SDS011;18201;50.978;7.034;2023-02-18T01:47:51;7.40;;;6.80;;
31596;SDS011;18201;50.978;7.034;2023-02-18T01:48:22;8.70;;;7.90;;
31596;SDS011;18201;50.978;7.034;2023-02-18T01:48:57;8.30;;;7.32;;
31596;SDS011;18201;50.978;7.034;2023-02-18T01:49:31;8.50;;;7.70;;
31596;SDS011;18201;50.978;7.034;2023-02-18T01:50:05;8.18;;;7.25;;
31596;SDS011;18201;50.978;7.034;2023-02-18T01:50:37;7.50;;;6.72;;
31596;SDS011;18201;50.978;7.034;2023-02-18T01:51:13;7.95;;;7.15;;
31596;SDS011;18201;50.978;7.034;2023-02-18T01:51:47;9.75;;;7.35;;
31596;SDS011;18201;50.978;7.034;2023-02-18T01:52:21;8.50;;;7.13;;
31596;SDS011;18201;50.978;7.034;2023-02-18T01:52:55;8.80;;;7.25;;
31596;SDS011;18201;50.978;7.034;2023-02-18T01:53:28;8.02;;;7.22;;
31596;SDS011;18201;50.978;7.034;2023-02-18T01:54:04;9.20;;;7.95;;
31596;SDS011;18201;50.978;7.034;2023-02-18T01:54:40;8.73;;;7.80;;
31596;SDS011;18201;50.978;7.034;2023-02-18T01:55:14;8.60;;;7.60;;
31596;SDS011;18201;50.978;7.034;2023-02-18T01:55:45;9.38;;;7.40;;
31596;SDS011;18201;50.978;7.034;2023-02-18T01:56:21;7.55;;;6.85;;
31596;SDS011;18201;50.978;7.034;2023-02-18T01:56:55;7.43;;;6.65;;
31596;SDS011;18201;50.978;7.034;2023-02-18T01:57:30;8.40;;;7.60;;
31596;SDS011;18201;50.978;7.034;2023-02-18T01:58:04;7.68;;;6.97;;
31596;SDS011;18201;50.978;7.034;2023-02-18T01:58:36;7.03;;;6.32;;
31596;SDS011;18201;50.978;7.034;2023-02-18T01:59:08;10.77;;;7.45;;
31596;SDS011;18201;50.978;7.034;2023-02-18T01:59:48;8.93;;;7.20;;
31596;SDS011;18201;50.978;7.034;2023-02-18T02:00:21;10.13;;;6.88;;
31596;SDS011;18201;50.978;7.034;2023-02-18T02:00:52;8.30;;;7.45;;
31596;SDS011;18201;50.978;7.034;2023-02-18T02:01:25;8.18;;;7.22;;
31596;SDS011;18201;50.978;7.034;2023-02-18T02:01:57;8.02;;;7.13;;
31596;SDS011;18201;50.978;7.034;2023-02-18T02:02:28;7.70;;;7.00;;
31596;SDS011;18201;50.978;7.034;2023-02-18T02:03:01;8.05;;;7.03;;
31596;SDS011;18201;50.978;7.034;2023-02-18T02:03:32;7.68;;;6.97;;
31596;SDS011;18201;50.978;7.034;2023-02-18T02:04:04;9.35;;;6.65;;
31596;SDS011;18201;50.978;7.034;2023-02-18T02:04:34;8.30;;;6.78;;
31596;SDS011;18201;50.978;7.034;2023-02-18T02:05:06;8.60;;;6.68;;
31596;SDS011;18201;50.978;7.034;2023-02-18T02:05:39;8.75;;;6.95;;
31596;SDS011;18201;50.978;7.034;2023-02-18T02:06:13;7.90;;;7.15;;
31596;SDS011;18201;50.978;7.034;2023-02-18T02:06:46;7.18;;;6.47;;
31596;SDS011;18201;50.978;7.034;2023-02-18T02:07:18;7.55;;;6.63;;
31596;SDS011;18201;50.978;7.034;2023-02-18T02:07:52;10.77;;;7.43;;
31596;SDS011;18201;50.978;7.034;2023-02-18T02:08:24;7.78;;;6.47;;
31596;SDS011;18201;50.978;7.034;2023-02-18T02:08:57;7.40;;;6.70;;
31596;SDS011;18201;50.978;7.034;2023-02-18T02:09:32;7.80;;;7.03;;
31596;SDS011;18201;50.978;7.034;2023-02-18T02:10:04;7.63;;;6.88;;
31596;SDS011;18201;50.978;7.034;2023-02-18T02:10:44;8.80;;;7.00;;
31596;SDS011;18201;50.978;7.034;2023-02-18T02:11:39;8.63;;;7.00;;
31596;SDS011;18201;50.978;7.034;2023-02-18T02:12:31;7.57;;;6.85;;
31596;SDS011;18201;50.978;7.034;2023-02-18T02:13:11;8.02;;;7.25;;
31596;SDS011;18201;50.978;7.034;2023-02-18T02:13:54;7.50;;;6.70;;
31596;SDS011;18201;50.978;7.034;2023-02-18T02:15:33;10.40;;;7.50;;
31596;SDS011;18201;50.978;7.034;2023-02-18T02:16:09;7.68;;;6.72;;
31596;SDS011;18201;50.978;7.034;2023-02-18T02:16:52;8.10;;;6.90;;
31596;SDS011;18201;50.978;7.034;2023-02-18T02:17:31;7.93;;;7.13;;
31596;SDS011;18201;50.978;7.034;2023-02-18T02:18:23;7.40;;;6.68;;
31596;SDS011;18201;50.978;7.034;2023-02-18T02:19:08;7.78;;;7.00;;
31596;SDS011;18201;50.978;7.034;2023-02-18T02:20:13;8.20;;;6.53;;
31596;SDS011;18201;50.978;7.034;2023-02-18T02:23:33;8.15;;;7.30;;
31596;SDS011;18201;50.978;7.034;2023-02-18T02:26:59;10.32;;;7.93;;
31596;SDS011;18201;50.978;7.034;2023-02-18T02:27:44;8.10;;;7.30;;
31596;SDS011;18201;50.978;7.034;2023-02-18T02:28:44;10.65;;;6.93;;
31596;SDS011;18201;50.978;7.034;2023-02-18T02:31:11;9.23;;;7.70;;
31596;SDS011;18201;50.978;7.034;2023-02-18T02:32:10;9.35;;;7.53;;
31596;SDS011;18201;50.978;7.034;2023-02-18T02:33:18;12.35;;;8.13;;
31596;SDS011;18201;50.978;7.034;2023-02-18T02:34:16;10.70;;;7.53;;
31596;SDS011;18201;50.978;7.034;2023-02-18T02:34:59;11.05;;;8.65;;
31596;SDS011;18201;50.978;7.034;2023-02-18T02:35:34;9.43;;;8.55;;
31596;SDS011;18201;50.978;7.034;2023-02-18T02:36:11;11.63;;;8.50;;
31596;SDS011;18201;50.978;7.034;2023-02-18T02:36:45;12.00;;;10.02;;
31596;SDS011;18201;50.978;7.034;2023-02-18T02:37:23;8.70;;;7.90;;
31596;SDS011;18201;50.978;7.034;2023-02-18T02:38:01;12.23;;;9.88;;
31596;SDS011;18201;50.978;7.034;2023-02-18T02:38:37;11.30;;;8.93;;
31596;SDS011;18201;50.978;7.034;2023-02-18T02:39:15;9.32;;;8.35;;
31596;SDS011;18201;50.978;7.034;2023-02-18T02:39:54;10.35;;;9.30;;
31596;SDS011;18201;50.978;7.034;2023-02-18T02:40:34;10.35;;;9.25;;
31596;SDS011;18201;50.978;7.034;2023-02-18T02:41:14;9.50;;;8.57;;
31596;SDS011;18201;50.978;7.034;2023-02-18T02:42:05;10.25;;;9.13;;
31596;SDS011;18201;50.978;7.034;2023-02-18T02:43:23;9.50;;;8.43;;
31596;SDS011;18201;50.978;7.034;2023-02-18T02:44:05;12.88;;;9.20;;
31596;SDS011;18201;50.978;7.034;2023-02-18T02:44:48;11.18;;;9.73;;
31596;SDS011;18201;50.978;7.034;2023-02-18T02:45:28;13.15;;;10.20;;
31596;SDS011;18201;50.978;7.034;2023-02-18T02:46:10;11.32;;;9.85;;
31596;SDS011;18201;50.978;7.034;2023-02-18T02:46:50;13.55;;;10.93;;
31596;SDS011;18201;50.978;7.034;2023-02-18T02:47:25;12.27;;;10.95;;
31596;SDS011;18201;50.978;7.034;2023-02-18T02:48:03;14.40;;;12.18;;
31596;SDS011;18201;50.978;7.034;2023-02-18T02:48:43;12.73;;;11.27;;
31596;SDS011;18201;50.978;7.034;2023-02-18T02:49:23;12.90;;;11.60;;
31596;SDS011;18201;50.978;7.034;2023-02-18T02:50:06;13.00;;;11.60;;
31596;SDS011;18201;50.978;7.034;2023-02-18T02:50:42;12.57;;;11.27;;
31596;SDS011;18201;50.978;7.034;2023-02-18T02:51:17;11.88;;;10.68;;
31596;SDS011;18201;50.978;7.034;2023-02-18T02:51:54;12.82;;;11.55;;
31596;SDS011;18201;50.978;7.034;2023-02-18T02:52:29;12.85;;;11.48;;
31596;SDS011;18201;50.978;7.034;2023-02-18T02:53:05;12.85;;;10.20;;
31596;SDS011;18201;50.978;7.034;2023-02-18T02:53:43;13.90;;;11.77;;
31596;SDS011;18201;50.978;7.034;2023-02-18T02:54:16;13.35;;;12.05;;
31596;SDS011;18201;50.978;7.034;2023-02-18T02:54:50;12.63;;;11.45;;
31596;SDS011;18201;50.978;7.034;2023-02-18T02:55:21;12.75;;;11.45;;
31596;SDS011;18201;50.978;7.034;2023-02-18T02:55:54;12.30;;;11.10;;
31596;SDS011;18201;50.978;7.034;2023-02-18T02:56:25;13.88;;;12.40;;
31596;SDS011;18201;50.978;7.034;2023-02-18T02:57:06;12.57;;;11.35;;
31596;SDS011;18201;50.978;7.034;2023-02-18T02:57:59;17.48;;;12.38;;
31596;SDS011;18201;50.978;7.034;2023-02-18T02:58:30;14.40;;;12.48;;
31596;SDS011;18201;50.978;7.034;2023-02-18T02:59:02;14.32;;;12.68;;
31596;SDS011;18201;50.978;7.034;2023-02-18T02:59:38;14.95;;;13.10;;
31596;SDS011;18201;50.978;7.034;2023-02-18T03:00:12;14.00;;;12.50;;
31596;SDS011;18201;50.978;7.034;2023-02-18T03:00:49;14.38;;;12.77;;
31596;SDS011;18201;50.978;7.034;2023-02-18T03:01:39;14.25;;;12.75;;
31596;SDS011;18201;50.978;7.034;2023-02-18T03:02:23;14.40;;;11.95;;
31596;SDS011;18201;50.978;7.034;2023-02-18T03:03:23;15.90;;;12.98;;
31596;SDS011;18201;50.978;7.034;2023-02-18T03:04:17;14.27;;;11.90;;
31596;SDS011;18201;50.978;7.034;2023-02-18T03:05:13;17.80;;;13.73;;
31596;SDS011;18201;50.978;7.034;2023-02-18T03:05:54;14.75;;;12.75;;
31596;SDS011;18201;50.978;7.034;2023-02-18T03:06:41;13.52;;;11.95;;
31596;SDS011;18201;50.978;7.034;2023-02-18T03:07:37;13.45;;;11.65;;
31596;SDS011;18201;50.978;7.034;2023-02-18T03:08:37;13.75;;;12.25;;
31596;SDS011;18201;50.978;7.034;2023-02-18T03:09:16;14.23;;;12.02;;
31596;SDS011;18201;50.978;7.034;2023-02-18T03:10:01;13.95;;;12.45;;
31596;SDS011;18201;50.978;7.034;2023-02-18T03:10:48;12.80;;;11.48;;
31596;SDS011;18201;50.978;7.034;2023-02-18T03:11:26;12.15;;;10.77;;
31596;SDS011;18201;50.978;7.034;2023-02-18T03:12:02;13.43;;;12.02;;
31596;SDS011;18201;50.978;7.034;2023-02-18T03:12:44;13.02;;;11.73;;
31596;SDS011;18201;50.978;7.034;2023-02-18T03:13:23;14.98;;;11.73;;
31596;SDS011;18201;50.978;7.034;2023-02-18T03:14:04;13.15;;;11.85;;
31596;SDS011;18201;50.978;7.034;2023-02-18T03:14:43;14.55;;;11.80;;
31596;SDS011;18201;50.978;7.034;2023-02-18T03:15:21;12.35;;;11.05;;
31596;SDS011;18201;50.978;7.034;2023-02-18T03:16:01;12.65;;;11.35;;
31596;SDS011;18201;50.978;7.034;2023-02-18T03:16:43;11.98;;;10.75;;
31596;SDS011;18201;50.978;7.034;2023-02-18T03:17:21;12.32;;;11.02;;
31596;SDS011;18201;50.978;7.034;2023-02-18T03:17:57;12.35;;;11.05;;
31596;SDS011;18201;50.978;7.034;2023-02-18T03:18:32;11.43;;;9.65;;
31596;SDS011;18201;50.978;7.034;2023-02-18T03:19:09;13.07;;;9.95;;
31596;SDS011;18201;50.978;7.034;2023-02-18T03:19:51;11.57;;;10.00;;
31596;SDS011;18201;50.978;7.034;2023-02-18T03:20:27;12.60;;;10.73;;
31596;SDS011;18201;50.978;7.034;2023-02-18T03:21:06;10.35;;;9.35;;
31596;SDS011;18201;50.978;7.034;2023-02-18T03:21:40;11.43;;;10.18;;
31596;SDS011;18201;50.978;7.034;2023-02-18T03:22:15;10.45;;;9.38;;
31596;SDS011;18201;50.978;7.034;2023-02-18T03:22:51;10.90;;;9.80;;
31596;SDS011;18201;50.978;7.034;2023-02-18T03:23:26;9.77;;;8.88;;
31596;SDS011;18201;50.978;7.034;2023-02-18T03:24:04;10.68;;;9.57;;
31596;SDS011;18201;50.978;7.034;2023-02-18T03:24:39;9.57;;;8.65;;
31596;SDS011;18201;50.978;7.034;2023-02-18T03:25:14;8.95;;;8.02;;
31596;SDS011;18201;50.978;7.034;2023-02-18T03:25:46;7.95;;;6.95;;
31596;SDS011;18201;50.978;7.034;2023-02-18T03:26:18;8.70;;;7.80;;
31596;SDS011;18201;50.978;7.034;2023-02-18T03:26:52;10.75;;;8.20;;
31596;SDS011;18201;50.978;7.034;2023-02-18T03:27:28;7.88;;;7.18;;
31596;SDS011;18201;50.978;7.034;2023-02-18T03:28:02;8.30;;;7.47;;
31596;SDS011;18201;50.978;7.034;2023-02-18T03:28:37;10.73;;;7.28;;
31596;SDS011;18201;50.978;7.034;2023-02-18T03:29:08;7.47;;;6.72;;
31596;SDS011;18201;50.978;7.034;2023-02-18T03:29:41;8.15;;;6.95;;
31596;SDS011;18201;50.978;7.034;2023-02-18T03:30:16;6.78;;;6.18;;
31596;SDS011;18201;50.978;7.034;2023-02-18T03:30:50;9.23;;;6.57;;
31596;SDS011;18201;50.978;7.034;2023-02-18T03:31:25;6.25;;;5.75;;
31596;SDS011;18201;50.978;7.034;2023-02-18T03:32:00;6.50;;;5.90;;
31596;SDS011;18201;50.978;7.034;2023-02-18T03:32:34;7.55;;;6.13;;
31596;SDS011;18201;50.978;7.034;2023-02-18T03:33:06;6.40;;;5.90;;
31596;SDS011;18201;50.978;7.034;2023-02-18T03:33:44;6.13;;;5.60;;
31596;SDS011;18201;50.978;7.034;2023-02-18T03:34:19;6.68;;;6.05;;
31596;SDS011;18201;50.978;7.034;2023-02-18T03:34:59;6.30;;;5.72;;
31596;SDS011;18201;50.978;7.034;2023-02-18T03:35:35;6.20;;;5.57;;
31596;SDS011;18201;50.978;7.034;2023-02-18T03:36:08;5.72;;;5.28;;
31596;SDS011;18201;50.978;7.034;2023-02-18T03:36:40;6.13;;;5.35;;
31596;SDS011;18201;50.978;7.034;2023-02-18T03:37:12;6.13;;;5.35;;
31596;SDS011;18201;50.978;7.034;2023-02-18T03:37:47;5.40;;;4.85;;
31596;SDS011;18201;50.978;7.034;2023-02-18T03:38:23;5.30;;;4.90;;
31596;SDS011;18201;50.978;7.034;2023-02-18T03:38:59;5.60;;;5.10;;
31596;SDS011;18201;50.978;7.034;2023-02-18T03:39:34;5.82;;;5.13;;
31596;SDS011;18201;50.978;7.034;2023-02-18T03:40:07;4.85;;;4.45;;
31596;SDS011;18201;50.978;7.034;2023-02-18T03:40:40;5.75;;;5.20;;
31596;SDS011;18201;50.978;7.034;2023-02-18T03:41:14;5.45;;;5.00;;
31596;SDS011;18201;50.978;7.034;2023-02-18T03:41:45;5.78;;;5.22;;
31596;SDS011;18201;50.978;7.034;2023-02-18T03:42:16;6.57;;;4.47;;
31596;SDS011;18201;50.978;7.034;2023-02-18T03:42:48;5.47;;;4.72;;
31596;SDS011;18201;50.978;7.034;2023-02-18T03:43:19;5.63;;;5.13;;
31596;SDS011;18201;50.978;7.034;2023-02-18T03:43:50;5.20;;;4.70;;
31596;SDS011;18201;50.978;7.034;2023-02-18T03:44:23;5.43;;;4.93;;
31596;SDS011;18201;50.978;7.034;2023-02-18T03:44:54;5.45;;;4.95;;
31596;SDS011;18201;50.978;7.034;2023-02-18T03:45:25;5.78;;;5.03;;
31596;SDS011;18201;50.978;7.034;2023-02-18T03:45:57;4.88;;;4.47;;
31596;SDS011;18201;50.978;7.034;2023-02-18T03:46:29;6.60;;;4.95;;
31596;SDS011;18201;50.978;7.034;2023-02-18T03:47:00;5.20;;;4.70;;
31596;SDS011;18201;50.978;7.034;2023-02-18T03:47:32;4.53;;;4.20;;
31596;SDS011;18201;50.978;7.034;2023-02-18T03:48:04;5.95;;;5.25;;
31596;SDS011;18201;50.978;7.034;2023-02-18T03:48:35;5.05;;;4.65;;
31596;SDS011;18201;50.978;7.034;2023-02-18T03:49:06;5.45;;;4.90;;
31596;SDS011;18201;50.978;7.034;2023-02-18T03:49:38;5.30;;;4.90;;
31596;SDS011;18201;50.978;7.034;2023-02-18T03:50:11;5.75;;;5.10;;
31596;SDS011;18201;50.978;7.034;2023-02-18T03:50:42;5.18;;;4.72;;
31596;SDS011;18201;50.978;7.034;2023-02-18T03:51:13;6.55;;;4.93;;
31596;SDS011;18201;50.978;7.034;2023-02-18T03:51:44;7.63;;;5.45;;
31596;SDS011;18201;50.978;7.034;2023-02-18T03:52:16;6.07;;;4.68;;
31596;SDS011;18201;50.978;7.034;2023-02-18T03:52:48;5.75;;;5.25;;
31596;SDS011;18201;50.978;7.034;2023-02-18T03:53:19;8.48;;;5.40;;
31596;SDS011;18201;50.978;7.034;2023-02-18T03:53:50;6.47;;;4.70;;
31596;SDS011;18201;50.978;7.034;2023-02-18T03:54:22;5.25;;;4.70;;
31596;SDS011;18201;50.978;7.034;2023-02-18T03:54:53;5.68;;;5.18;;
31596;SDS011;18201;50.978;7.034;2023-02-18T03:55:24;5.45;;;4.95;;
31596;SDS011;18201;50.978;7.034;2023-02-18T03:55:55;5.97;;;5.47;;
31596;SDS011;18201;50.978;7.034;2023-02-18T03:56:27;4.97;;;4.57;;
31596;SDS011;18201;50.978;7.034;2023-02-18T03:56:57;5.43;;;4.45;;
31596;SDS011;18201;50.978;7.034;2023-02-18T03:57:28;5.82;;;5.32;;
31596;SDS011;18201;50.978;7.034;2023-02-18T03:58:00;6.00;;;5.05;;
31596;SDS011;18201;50.978;7.034;2023-02-18T03:58:31;5.70;;;5.20;;
31596;SDS011;18201;50.978;7.034;2023-02-18T03:59:02;5.15;;;4.57;;
31596;SDS011;18201;50.978;7.034;2023-02-18T03:59:34;4.93;;;4.50;;
31596;SDS011;18201;50.978;7.034;2023-02-18T04:00:06;5.47;;;4.97;;
31596;SDS011;18201;50.978;7.034;2023-02-18T04:00:37;4.57;;;4.18;;
31596;SDS011;18201;50.978;7.034;2023-02-18T04:01:09;4.82;;;4.43;;
31596;SDS011;18201;50.978;7.034;2023-02-18T04:01:40;5.13;;;4.60;;
31596;SDS011;18201;50.978;7.034;2023-02-18T04:02:11;5.57;;;5.07;;
31596;SDS011;18201;50.978;7.034;2023-02-18T04:02:42;5.80;;;5.10;;
31596;SDS011;18201;50.978;7.034;2023-02-18T04:03:14;5.70;;;4.50;;
31596;SDS011;18201;50.978;7.034;2023-02-18T04:03:45;5.40;;;4.65;;
31596;SDS011;18201;50.978;7.034;2023-02-18T04:04:16;5.32;;;4.82;;
31596;SDS011;18201;50.978;7.034;2023-02-18T04:52:51;4.13;;;2.40;;
31596;SDS011;18201;50.978;7.034;2023-02-18T04:53:23;5.40;;;3.25;;
31596;SDS011;18201;50.978;7.034;2023-02-18T04:53:54;4.53;;;3.13;;
31596;SDS011;18201;50.978;7.034;2023-02-18T04:54:25;6.75;;;3.67;;
31596;SDS011;18201;50.978;7.034;2023-02-18T04:54:56;3.85;;;3.45;;